Terminal Aerodrome Forecast
Issued by NWS

Home | Current Version | Previous Version | Text Only | Print | Product List | Glossary On
Versions: 1 2 3 4 5 6 7 8 9 10 11 12
000
FTUS42 TJSJ 161100
TAFKPK
TAF
TKPK 161122Z 1612/1712 05008KT P6SM SCT015
     FM162300 06006KT P6SM VCSH SCT018
      AMD NOT SKED 1702/1711=

USA.gov is the U.S. government's official web portal to all federal, state and local government web resources and services.